Terminal Aerodrome Forecast
Issued by NWS Shreveport, LA

Home | Current Version | Previous Version | Text Only | Print | Product List | Glossary On
Versions: 1 2 3 4 5 6 7 8 9 10 11 12 13
000
FTUS44 KSHV 311141
TAFSHV
TAF
KSHV 311141Z 3112/0112 15003KT P6SM BKN250
     FM311500 22005KT P6SM SCT050 BKN250
     FM311900 16007KT P6SM BKN050 BKN250
     FM010100 16004KT P6SM BKN250=

USA.gov is the U.S. government's official web portal to all federal, state and local government web resources and services.